Time;durP1;ratioP1;P1;durP2;ratioP2;P2;SDS_P1;SDS_P2;PMS_P1;PMS_P2;Temp;Humidity;BMP_temperature;BMP_pressure;BME280_temperature;BME280_humidity;BME280_pressure;Samples;Min_cycle;Max_cycle;Signal;HPM_P1;HPM_P2
2022/05/12 00:02:03;;;;;;;23.55;4.55;;;;;;;;;;5080768;28;20139;-69
2022/05/12 00:04:29;;;;;;;33.95;5.30;;;;;;;;;;5081210;28;20445;-69
2022/05/12 00:06:56;;;;;;;32.55;6.80;;;;;;;;;;5083368;28;20359;-69
2022/05/12 00:09:22;;;;;;;31.55;5.28;;;;;;;;;;5085012;28;20044;-70
2022/05/12 00:11:48;;;;;;;30.77;5.85;;;;;;;;;;5079354;28;20025;-69
2022/05/12 00:14:14;;;;;;;25.70;5.25;;;;;;;;;;5084546;28;20020;-69
2022/05/12 00:16:40;;;;;;;21.85;5.40;;;;;;;;;;5080802;28;20089;-69
2022/05/12 00:19:06;;;;;;;29.58;5.03;;;;;;;;;;5083551;28;20447;-69
2022/05/12 00:21:32;;;;;;;33.75;5.35;;;;;;;;;;5081317;28;20085;-70
2022/05/12 00:23:58;;;;;;;33.38;7.53;;;;;;;;;;5081071;28;20496;-70
2022/05/12 00:26:26;;;;;;;26.17;5.63;;;;;;;;;;5082275;28;20032;-69
2022/05/12 00:28:52;;;;;;;31.67;5.10;;;;;;;;;;5078253;28;20040;-69
2022/05/12 00:31:18;;;;;;;23.52;5.10;;;;;;;;;;5078000;28;20036;-69
2022/05/12 00:33:44;;;;;;;31.63;6.30;;;;;;;;;;5075428;28;20117;-69
2022/05/12 00:36:10;;;;;;;26.92;6.35;;;;;;;;;;5083686;28;20099;-69
2022/05/12 00:38:36;;;;;;;25.67;6.53;;;;;;;;;;5082991;28;20134;-69
2022/05/12 00:41:02;;;;;;;15.32;5.15;;;;;;;;;;5083707;28;20040;-70
2022/05/12 00:43:43;;;;;;;23.88;4.90;;;;;;;;;;5080323;28;20368;-68
2022/05/12 00:46:10;;;;;;;26.65;5.93;;;;;;;;;;5083048;28;20156;-68
2022/05/12 00:48:36;;;;;;;30.83;7.60;;;;;;;;;;5080244;28;20072;-68
2022/05/12 00:51:03;;;;;;;22.30;5.82;;;;;;;;;;5085311;28;20463;-70
2022/05/12 00:53:30;;;;;;;27.13;6.72;;;;;;;;;;5077676;28;20031;-68
2022/05/12 00:55:58;;;;;;;35.10;6.68;;;;;;;;;;5082581;28;20020;-69
2022/05/12 00:58:24;;;;;;;33.28;7.22;;;;;;;;;;5081651;28;20160;-69
2022/05/12 01:00:50;;;;;;;38.30;7.07;;;;;;;;;;5082392;28;20044;-69
2022/05/12 01:03:18;;;;;;;26.40;7.07;;;;;;;;;;5078933;28;20099;-69
2022/05/12 01:05:45;;;;;;;22.60;5.72;;;;;;;;;;5076389;28;20024;-68
2022/05/12 01:08:12;;;;;;;20.90;5.82;;;;;;;;;;5081745;28;20036;-68
2022/05/12 01:10:39;;;;;;;27.63;5.43;;;;;;;;;;5084384;28;20031;-69
2022/05/12 01:13:05;;;;;;;24.00;6.53;;;;;;;;;;5081834;28;20542;-68
2022/05/12 01:15:31;;;;;;;28.38;5.95;;;;;;;;;;5081168;28;20512;-69
2022/05/12 01:18:01;;;;;;;34.38;5.78;;;;;;;;;;5080409;28;20024;-68
2022/05/12 01:20:27;;;;;;;26.98;5.00;;;;;;;;;;5081793;28;20237;-68
2022/05/12 01:22:55;;;;;;;26.88;5.30;;;;;;;;;;5081753;28;20028;-68
2022/05/12 01:25:24;;;;;;;25.75;5.53;;;;;;;;;;5083061;28;20039;-68
2022/05/12 01:27:50;;;;;;;27.85;5.15;;;;;;;;;;5081634;28;20066;-68
2022/05/12 01:30:18;;;;;;;27.63;5.35;;;;;;;;;;5081439;28;20039;-69
2022/05/12 01:32:46;;;;;;;33.90;5.57;;;;;;;;;;5079862;28;20024;-69
2022/05/12 01:35:12;;;;;;;30.05;5.47;;;;;;;;;;5077561;28;20036;-68
2022/05/12 01:37:40;;;;;;;27.75;6.32;;;;;;;;;;5079584;28;20115;-68
2022/05/12 01:40:06;;;;;;;26.52;5.82;;;;;;;;;;5078411;28;20119;-69
2022/05/12 01:42:32;;;;;;;23.40;6.07;;;;;;;;;;5081708;28;20032;-68
2022/05/12 01:44:58;;;;;;;27.83;7.13;;;;;;;;;;5081787;28;20430;-69
2022/05/12 01:47:24;;;;;;;21.90;6.75;;;;;;;;;;5078126;28;20028;-69
2022/05/12 01:49:50;;;;;;;20.70;7.03;;;;;;;;;;5076179;28;20035;-69
2022/05/12 01:52:17;;;;;;;21.48;6.20;;;;;;;;;;5076872;28;20056;-69
2022/05/12 01:54:43;;;;;;;21.80;7.10;;;;;;;;;;5078788;28;20021;-69
2022/05/12 01:57:09;;;;;;;27.98;6.78;;;;;;;;;;5078874;28;20036;-68
2022/05/12 01:59:35;;;;;;;25.88;6.78;;;;;;;;;;5083167;28;20052;-69
2022/05/12 02:02:03;;;;;;;28.60;7.15;;;;;;;;;;5080375;28;20058;-69
2022/05/12 02:04:29;;;;;;;25.30;7.15;;;;;;;;;;5083309;28;20044;-69
2022/05/12 02:06:55;;;;;;;25.67;8.85;;;;;;;;;;5080197;28;20041;-68
2022/05/12 02:09:21;;;;;;;30.10;9.70;;;;;;;;;;5081556;28;20191;-69
2022/05/12 02:11:47;;;;;;;27.67;8.90;;;;;;;;;;5082343;28;20028;-69
2022/05/12 02:14:14;;;;;;;25.65;9.77;;;;;;;;;;5083125;28;20032;-69
2022/05/12 02:16:40;;;;;;;33.47;9.93;;;;;;;;;;5082386;28;20469;-69
2022/05/12 02:19:07;;;;;;;37.38;10.90;;;;;;;;;;5083538;28;20080;-68
2022/05/12 02:21:34;;;;;;;26.42;11.13;;;;;;;;;;5080442;28;20477;-70
2022/05/12 02:24:00;;;;;;;32.40;11.20;;;;;;;;;;5082409;28;20036;-69
2022/05/12 02:26:27;;;;;;;31.05;11.25;;;;;;;;;;5080131;28;20154;-69
2022/05/12 02:28:53;;;;;;;33.35;12.68;;;;;;;;;;5079543;28;20143;-70
2022/05/12 02:31:19;;;;;;;35.72;14.57;;;;;;;;;;5079339;28;20020;-69
2022/05/12 02:33:45;;;;;;;42.92;15.73;;;;;;;;;;5080081;28;20036;-69
2022/05/12 02:36:11;;;;;;;48.47;16.50;;;;;;;;;;5079999;28;20040;-69
2022/05/12 02:38:37;;;;;;;37.67;17.35;;;;;;;;;;5084454;28;20031;-69
2022/05/12 02:41:03;;;;;;;48.35;17.25;;;;;;;;;;5085620;28;20035;-72
2022/05/12 02:43:31;;;;;;;46.47;20.10;;;;;;;;;;5084481;28;20408;-69
2022/05/12 02:45:59;;;;;;;43.15;19.25;;;;;;;;;;5084074;28;20033;-69
2022/05/12 02:48:27;;;;;;;50.58;21.42;;;;;;;;;;5084786;28;20028;-69
2022/05/12 02:50:53;;;;;;;49.47;20.60;;;;;;;;;;5082844;28;20024;-71
2022/05/12 02:53:19;;;;;;;47.42;21.80;;;;;;;;;;5081857;28;20024;-70
2022/05/12 02:55:45;;;;;;;48.17;21.60;;;;;;;;;;5082800;28;20765;-69
2022/05/12 02:58:12;;;;;;;56.65;23.73;;;;;;;;;;5079302;28;20036;-70
2022/05/12 03:00:38;;;;;;;50.65;23.55;;;;;;;;;;5081318;28;20020;-70
2022/05/12 03:03:05;;;;;;;64.25;24.98;;;;;;;;;;5080074;28;20044;-69
2022/05/12 03:05:31;;;;;;;55.15;23.77;;;;;;;;;;5085343;28;20040;-69
2022/05/12 03:07:57;;;;;;;61.33;25.02;;;;;;;;;;5082799;28;20040;-70
2022/05/12 03:10:24;;;;;;;52.17;23.65;;;;;;;;;;5083492;28;20024;-69
2022/05/12 03:12:50;;;;;;;54.08;23.70;;;;;;;;;;5080588;28;20020;-69
2022/05/12 03:15:16;;;;;;;55.10;24.88;;;;;;;;;;5084489;28;20088;-69
2022/05/12 03:17:45;;;;;;;54.83;23.75;;;;;;;;;;5082969;28;20032;-69
2022/05/12 03:20:13;;;;;;;47.92;22.42;;;;;;;;;;5081418;28;20107;-69
2022/05/12 03:22:39;;;;;;;56.05;23.33;;;;;;;;;;5082958;28;20020;-69
2022/05/12 03:25:08;;;;;;;52.97;23.08;;;;;;;;;;5084362;28;20123;-69
2022/05/12 03:27:34;;;;;;;57.13;24.30;;;;;;;;;;5080094;28;20473;-68
2022/05/12 03:30:01;;;;;;;60.28;22.95;;;;;;;;;;5081577;28;20089;-69
2022/05/12 03:32:27;;;;;;;60.17;22.80;;;;;;;;;;5083471;28;20090;-68
2022/05/12 03:34:53;;;;;;;57.70;22.85;;;;;;;;;;5083670;28;20148;-72
2022/05/12 03:37:19;;;;;;;47.90;23.30;;;;;;;;;;5083730;28;20032;-70
2022/05/12 03:39:45;;;;;;;53.05;23.98;;;;;;;;;;5082944;28;20058;-69
2022/05/12 03:42:12;;;;;;;51.85;24.25;;;;;;;;;;5082015;28;20585;-69
2022/05/12 03:44:47;;;;;;;55.75;22.20;;;;;;;;;;5081875;28;20070;-69
2022/05/12 03:47:21;;;;;;;51.45;22.80;;;;;;;;;;5080592;28;20032;-69
2022/05/12 03:49:51;;;;;;;53.72;23.58;;;;;;;;;;5079700;28;20062;-70
2022/05/12 03:52:17;;;;;;;54.92;24.23;;;;;;;;;;5081250;28;20028;-69
2022/05/12 03:54:44;;;;;;;58.97;22.92;;;;;;;;;;5083169;28;20031;-69
2022/05/12 03:57:11;;;;;;;48.70;23.77;;;;;;;;;;5083857;28;20024;-69
2022/05/12 03:59:40;;;;;;;52.05;24.15;;;;;;;;;;5083748;28;20044;-70
2022/05/12 04:02:07;;;;;;;59.40;25.30;;;;;;;;;;5078955;28;20585;-69
2022/05/12 04:04:34;;;;;;;60.95;24.98;;;;;;;;;;5084490;28;20032;-69
2022/05/12 04:07:00;;;;;;;60.17;25.00;;;;;;;;;;5085369;28;20046;-69
2022/05/12 04:09:27;;;;;;;56.33;24.45;;;;;;;;;;5083783;28;20035;-70
2022/05/12 04:11:53;;;;;;;57.70;25.48;;;;;;;;;;5084822;28;20024;-69
2022/05/12 04:14:19;;;;;;;52.55;24.85;;;;;;;;;;5082766;28;20028;-69
2022/05/12 04:16:45;;;;;;;58.45;25.33;;;;;;;;;;5083729;28;20034;-70
2022/05/12 04:19:14;;;;;;;50.45;22.70;;;;;;;;;;5081267;28;20063;-71
2022/05/12 04:21:41;;;;;;;54.58;23.63;;;;;;;;;;5081652;28;20508;-69
2022/05/12 04:24:07;;;;;;;47.17;22.92;;;;;;;;;;5082601;28;20046;-72
2022/05/12 04:26:34;;;;;;;46.30;22.27;;;;;;;;;;5081363;28;20059;-69
2022/05/12 04:29:00;;;;;;;52.88;22.70;;;;;;;;;;5083588;28;20243;-71
2022/05/12 04:31:26;;;;;;;42.90;21.88;;;;;;;;;;5081256;28;20036;-69
2022/05/12 04:36:37;;;;;;;47.20;21.58;;;;;;;;;;5081610;28;20066;-69
2022/05/12 04:39:04;;;;;;;34.50;17.92;;;;;;;;;;5080127;28;20065;-69
2022/05/12 04:41:30;;;;;;;30.90;17.60;;;;;;;;;;5084970;28;20022;-69
2022/05/12 04:43:56;;;;;;;32.15;16.45;;;;;;;;;;5082159;28;20538;-69
2022/05/12 04:46:24;;;;;;;27.73;15.57;;;;;;;;;;5082600;28;20055;-70
2022/05/12 04:48:50;;;;;;;27.73;13.77;;;;;;;;;;5080904;28;20036;-69
2022/05/12 04:51:16;;;;;;;22.73;12.85;;;;;;;;;;5082314;28;20111;-70
2022/05/12 04:53:42;;;;;;;23.20;11.15;;;;;;;;;;5079436;28;20449;-70
2022/05/12 04:56:08;;;;;;;25.52;10.40;;;;;;;;;;5079621;28;20035;-70
2022/05/12 04:58:34;;;;;;;18.00;8.90;;;;;;;;;;5080695;28;20536;-71
2022/05/12 05:01:00;;;;;;;17.85;9.18;;;;;;;;;;5084866;28;20098;-70
2022/05/12 05:03:27;;;;;;;14.35;8.48;;;;;;;;;;5081516;28;20097;-69
2022/05/12 05:05:53;;;;;;;21.25;8.45;;;;;;;;;;5081400;28;20065;-69
2022/05/12 05:08:20;;;;;;;18.02;6.93;;;;;;;;;;5079702;28;20043;-70
2022/05/12 05:10:46;;;;;;;15.18;6.80;;;;;;;;;;5082497;28;20036;-71
2022/05/12 05:13:13;;;;;;;15.10;6.90;;;;;;;;;;5077969;28;20457;-71
2022/05/12 05:15:39;;;;;;;18.10;7.03;;;;;;;;;;5081221;28;20036;-70
2022/05/12 05:18:06;;;;;;;21.08;6.45;;;;;;;;;;5081499;28;20060;-70
2022/05/12 05:20:32;;;;;;;16.23;5.75;;;;;;;;;;5088412;28;20103;-70
2022/05/12 05:22:58;;;;;;;14.10;6.20;;;;;;;;;;5084747;28;20115;-69
2022/05/12 05:25:24;;;;;;;14.85;5.43;;;;;;;;;;5093187;28;20469;-70
2022/05/12 05:27:51;;;;;;;18.40;6.07;;;;;;;;;;5085070;28;20098;-68
2022/05/12 05:30:19;;;;;;;17.65;4.85;;;;;;;;;;5081748;28;20028;-70
2022/05/12 05:32:48;;;;;;;11.20;4.63;;;;;;;;;;5079056;28;20174;-70
2022/05/12 05:35:14;;;;;;;13.52;4.20;;;;;;;;;;5081231;28;20501;-70
2022/05/12 05:37:42;;;;;;;13.45;5.18;;;;;;;;;;5078353;28;20462;-70
2022/05/12 05:40:08;;;;;;;11.25;4.25;;;;;;;;;;5083475;28;20091;-71
2022/05/12 05:42:35;;;;;;;9.93;4.30;;;;;;;;;;5080395;28;20024;-71
2022/05/12 05:45:08;;;;;;;10.32;3.60;;;;;;;;;;5083472;28;20513;-69
2022/05/12 05:47:34;;;;;;;12.70;4.43;;;;;;;;;;5079954;28;20049;-70
2022/05/12 05:50:00;;;;;;;10.50;3.50;;;;;;;;;;5076695;28;20538;-69
2022/05/12 05:55:11;;;;;;;19.20;4.55;;;;;;;;;;5083398;28;20105;-69
2022/05/12 05:57:37;;;;;;;13.13;3.22;;;;;;;;;;5079759;28;20032;-69
2022/05/12 06:00:05;;;;;;;13.77;3.28;;;;;;;;;;5085228;28;20148;-70
2022/05/12 06:02:31;;;;;;;9.23;3.10;;;;;;;;;;5077832;28;20071;-70
2022/05/12 06:04:57;;;;;;;10.25;3.28;;;;;;;;;;5082453;28;20043;-69
2022/05/12 06:07:24;;;;;;;16.70;3.78;;;;;;;;;;5087490;28;20032;-69
2022/05/12 06:09:51;;;;;;;12.95;3.63;;;;;;;;;;5085678;28;20024;-70
2022/05/12 06:12:17;;;;;;;14.07;3.38;;;;;;;;;;5080823;28;20109;-69
2022/05/12 06:14:43;;;;;;;11.65;3.42;;;;;;;;;;5085937;28;20469;-70
2022/05/12 06:17:09;;;;;;;8.93;3.05;;;;;;;;;;5088140;28;20048;-70
2022/05/12 06:19:36;;;;;;;12.43;3.70;;;;;;;;;;5086041;28;20024;-69
2022/05/12 06:22:02;;;;;;;8.82;2.80;;;;;;;;;;5090189;28;20097;-69
2022/05/12 06:24:29;;;;;;;12.88;3.47;;;;;;;;;;5087567;28;20036;-70
2022/05/12 06:26:55;;;;;;;9.77;2.97;;;;;;;;;;5085307;28;20032;-71
2022/05/12 06:29:21;;;;;;;11.30;3.22;;;;;;;;;;5076540;28;20029;-70
2022/05/12 06:31:47;;;;;;;11.05;3.10;;;;;;;;;;5083567;28;20036;-70
2022/05/12 06:34:14;;;;;;;8.27;3.75;;;;;;;;;;5082342;28;20024;-70
2022/05/12 06:36:40;;;;;;;10.95;3.30;;;;;;;;;;5088170;28;20062;-70
2022/05/12 06:39:06;;;;;;;10.57;3.05;;;;;;;;;;5071405;28;20025;-70
2022/05/12 06:41:33;;;;;;;14.52;3.20;;;;;;;;;;5072936;28;20047;-70
2022/05/12 06:44:01;;;;;;;14.05;3.00;;;;;;;;;;5082860;28;20108;-70
2022/05/12 06:46:27;;;;;;;12.07;2.72;;;;;;;;;;5083138;28;20112;-70
2022/05/12 06:48:53;;;;;;;9.98;2.70;;;;;;;;;;5080304;28;20077;-70
2022/05/12 06:51:20;;;;;;;15.35;3.10;;;;;;;;;;5089146;28;20096;-69
2022/05/12 06:53:46;;;;;;;9.63;3.20;;;;;;;;;;5087609;28;20031;-69
2022/05/12 06:56:12;;;;;;;13.18;3.60;;;;;;;;;;5085751;28;20024;-70
2022/05/12 06:58:38;;;;;;;13.82;3.33;;;;;;;;;;5082161;28;20028;-71
2022/05/12 07:01:05;;;;;;;9.18;3.60;;;;;;;;;;5082359;28;20261;-70
2022/05/12 07:03:32;;;;;;;8.55;3.28;;;;;;;;;;5084291;28;20379;-70
2022/05/12 07:05:58;;;;;;;12.00;2.80;;;;;;;;;;5086156;28;20583;-71
2022/05/12 07:08:26;;;;;;;9.63;3.10;;;;;;;;;;5084136;28;20032;-71
2022/05/12 07:10:52;;;;;;;9.02;3.40;;;;;;;;;;5084458;28;20024;-69
2022/05/12 07:13:20;;;;;;;13.50;3.58;;;;;;;;;;5086499;28;20307;-70
2022/05/12 07:15:47;;;;;;;8.88;2.95;;;;;;;;;;5084771;28;20017;-70
2022/05/12 07:18:14;;;;;;;9.32;3.13;;;;;;;;;;5084975;28;20148;-70
2022/05/12 07:28:54;;;;;;;9.95;2.97;;;;;;;;;;5087840;28;20097;-70
2022/05/12 07:31:21;;;;;;;11.90;3.55;;;;;;;;;;5087747;28;20400;-71
2022/05/12 07:33:47;;;;;;;11.27;3.55;;;;;;;;;;5087759;28;20035;-70
2022/05/12 07:36:15;;;;;;;15.70;3.70;;;;;;;;;;5070436;28;20032;-70
2022/05/12 07:38:42;;;;;;;10.73;3.72;;;;;;;;;;5086445;28;20035;-70
2022/05/12 07:41:10;;;;;;;13.45;4.38;;;;;;;;;;5089993;28;20508;-70
2022/05/12 07:43:37;;;;;;;13.95;3.45;;;;;;;;;;5086915;28;20055;-70
2022/05/12 07:46:03;;;;;;;9.50;2.58;;;;;;;;;;5087809;28;20040;-71
2022/05/12 07:48:29;;;;;;;8.35;2.45;;;;;;;;;;5089175;28;20040;-71
2022/05/12 07:50:55;;;;;;;10.05;2.80;;;;;;;;;;5089137;28;20124;-70
2022/05/12 07:53:21;;;;;;;13.50;2.92;;;;;;;;;;5081943;28;20032;-70
2022/05/12 07:55:48;;;;;;;9.10;3.10;;;;;;;;;;5065944;28;20398;-69
2022/05/12 07:58:15;;;;;;;13.10;3.28;;;;;;;;;;5088955;28;20063;-70
2022/05/12 08:00:41;;;;;;;6.82;2.67;;;;;;;;;;5087168;28;20128;-70
2022/05/12 08:03:07;;;;;;;7.93;3.05;;;;;;;;;;5087673;28;20044;-70
2022/05/12 08:05:34;;;;;;;6.15;2.20;;;;;;;;;;5090036;28;20044;-70
2022/05/12 08:08:00;;;;;;;7.07;2.70;;;;;;;;;;5088095;28;20134;-70
2022/05/12 08:10:26;;;;;;;7.45;2.47;;;;;;;;;;5086906;28;20248;-70
2022/05/12 08:12:53;;;;;;;8.50;2.33;;;;;;;;;;5100340;28;20065;-70
2022/05/12 08:15:21;;;;;;;7.72;2.13;;;;;;;;;;5104821;28;20082;-71
2022/05/12 08:17:47;;;;;;;8.68;2.15;;;;;;;;;;5090805;28;20035;-71
2022/05/12 08:20:14;;;;;;;8.80;2.88;;;;;;;;;;5089454;28;20053;-70
2022/05/12 08:22:40;;;;;;;8.73;2.05;;;;;;;;;;5085753;28;20012;-71
2022/05/12 08:25:08;;;;;;;7.03;2.20;;;;;;;;;;5089815;28;20028;-70
2022/05/12 08:27:34;;;;;;;5.05;1.90;;;;;;;;;;5087744;28;20073;-71
2022/05/12 08:30:00;;;;;;;8.20;2.42;;;;;;;;;;5085340;28;20032;-70
2022/05/12 08:32:26;;;;;;;7.57;2.20;;;;;;;;;;5085534;28;20073;-71
2022/05/12 08:34:52;;;;;;;7.63;2.00;;;;;;;;;;5068004;28;20444;-72
2022/05/12 08:37:18;;;;;;;9.95;3.00;;;;;;;;;;5086823;28;20477;-70
2022/05/12 08:39:45;;;;;;;8.57;2.28;;;;;;;;;;5087503;28;20127;-70
2022/05/12 08:42:11;;;;;;;8.68;2.10;;;;;;;;;;5085871;28;21281;-70
2022/05/12 08:44:38;;;;;;;7.10;2.58;;;;;;;;;;5087589;28;20108;-70
2022/05/12 08:47:07;;;;;;;7.90;2.10;;;;;;;;;;5090699;28;20050;-71
2022/05/12 08:49:37;;;;;;;7.03;2.30;;;;;;;;;;5085069;28;20035;-71
2022/05/12 08:52:23;;;;;;;7.82;2.17;;;;;;;;;;5080707;28;20558;-72
2022/05/12 08:54:52;;;;;;;5.57;1.67;;;;;;;;;;5089252;28;20024;-70
2022/05/12 08:57:44;;;;;;;6.65;1.70;;;;;;;;;;5089869;28;20119;-70
2022/05/12 09:00:12;;;;;;;8.55;2.03;;;;;;;;;;5087011;28;20119;-70
2022/05/12 09:02:57;;;;;;;18.00;2.20;;;;;;;;;;5087497;28;20047;-69
2022/05/12 09:05:26;;;;;;;9.88;1.80;;;;;;;;;;5068728;28;20055;-70
2022/05/12 09:07:59;;;;;;;7.18;1.88;;;;;;;;;;5068103;28;20371;-70
2022/05/12 09:10:43;;;;;;;4.57;1.27;;;;;;;;;;5082747;28;20031;-70
2022/05/12 09:13:28;;;;;;;7.03;1.60;;;;;;;;;;5085385;28;20157;-71
2022/05/12 09:16:08;;;;;;;11.63;2.05;;;;;;;;;;5085365;28;20024;-71
2022/05/12 09:18:34;;;;;;;8.02;1.42;;;;;;;;;;5084369;28;20422;-71
2022/05/12 09:21:02;;;;;;;5.50;1.42;;;;;;;;;;5084265;28;20027;-70
2022/05/12 09:23:28;;;;;;;6.65;1.90;;;;;;;;;;5087741;28;20032;-70
2022/05/12 09:25:54;;;;;;;6.80;1.70;;;;;;;;;;5089097;28;20037;-70
2022/05/12 09:28:34;;;;;;;12.00;1.70;;;;;;;;;;5063989;28;20044;-69
2022/05/12 09:31:02;;;;;;;3.22;1.25;;;;;;;;;;5073375;28;20462;-70
2022/05/12 09:33:30;;;;;;;5.07;1.48;;;;;;;;;;5087418;28;20024;-70
2022/05/12 09:36:01;;;;;;;6.93;1.42;;;;;;;;;;5088617;28;20113;-69
2022/05/12 09:38:28;;;;;;;5.95;1.60;;;;;;;;;;5084394;28;20035;-69
2022/05/12 09:40:54;;;;;;;4.13;1.30;;;;;;;;;;5082172;28;20035;-70
2022/05/12 09:43:29;;;;;;;5.15;1.45;;;;;;;;;;5085182;28;20036;-70
2022/05/12 09:46:06;;;;;;;5.25;1.23;;;;;;;;;;5089171;28;20031;-71
2022/05/12 09:48:33;;;;;;;5.38;1.65;;;;;;;;;;5088523;28;20055;-70
2022/05/12 09:51:13;;;;;;;7.63;1.33;;;;;;;;;;5087253;28;20051;-69
2022/05/12 09:53:39;;;;;;;54.28;2.90;;;;;;;;;;5088297;28;20503;-71
2022/05/12 09:56:07;;;;;;;7.72;1.45;;;;;;;;;;5087208;28;20074;-70
2022/05/12 09:58:35;;;;;;;7.38;1.40;;;;;;;;;;5072641;28;20044;-70
2022/05/12 10:01:07;;;;;;;9.35;1.60;;;;;;;;;;5071797;28;20032;-71
2022/05/12 10:09:21;;;;;;;4.88;1.45;;;;;;;;;;5084474;28;20050;-72
2022/05/12 10:11:58;;;;;;;6.93;1.60;;;;;;;;;;5087502;28;20050;-69
2022/05/12 10:14:33;;;;;;;5.05;1.50;;;;;;;;;;5086840;28;20501;-71
2022/05/12 10:17:01;;;;;;;7.43;1.42;;;;;;;;;;5079360;28;20028;-71
2022/05/12 10:19:29;;;;;;;10.10;1.52;;;;;;;;;;5087047;28;20075;-70
2022/05/12 10:22:08;;;;;;;6.32;1.70;;;;;;;;;;5085412;28;20029;-69
2022/05/12 10:24:34;;;;;;;5.43;2.42;;;;;;;;;;5086230;28;20028;-70
2022/05/12 10:27:29;;;;;;;13.48;1.80;;;;;;;;;;5084144;28;20029;-71
2022/05/12 10:30:05;;;;;;;7.70;1.60;;;;;;;;;;5085868;28;20453;-70
2022/05/12 10:32:47;;;;;;;7.93;1.65;;;;;;;;;;5087486;28;20028;-70
2022/05/12 10:35:19;;;;;;;6.90;1.48;;;;;;;;;;5087320;28;20119;-72
2022/05/12 10:37:48;;;;;;;10.60;1.58;;;;;;;;;;5085119;28;20020;-68
2022/05/12 10:40:25;;;;;;;4.85;1.73;;;;;;;;;;5087923;28;20259;-72
2022/05/12 10:43:09;;;;;;;6.53;1.55;;;;;;;;;;5084403;28;20024;-71
2022/05/12 10:45:44;;;;;;;5.82;2.22;;;;;;;;;;5086602;28;20024;-70
2022/05/12 10:48:10;;;;;;;7.25;1.67;;;;;;;;;;5073070;28;20028;-71
2022/05/12 10:50:45;;;;;;;6.57;1.63;;;;;;;;;;5089083;28;20036;-69
2022/05/12 10:53:32;;;;;;;6.85;1.80;;;;;;;;;;5086476;28;20030;-72
2022/05/12 10:56:16;;;;;;;14.75;1.65;;;;;;;;;;5081208;28;20496;-70
2022/05/12 10:59:07;;;;;;;6.82;1.45;;;;;;;;;;5084234;28;20530;-70
2022/05/12 11:01:36;;;;;;;5.13;1.70;;;;;;;;;;5066435;28;20050;-71
2022/05/12 11:04:02;;;;;;;4.90;1.50;;;;;;;;;;5090531;28;20036;-71
2022/05/12 11:06:32;;;;;;;4.10;1.40;;;;;;;;;;5089634;28;20121;-71
2022/05/12 11:09:02;;;;;;;6.13;1.70;;;;;;;;;;5086627;28;20035;-70
2022/05/12 11:11:33;;;;;;;4.80;1.50;;;;;;;;;;5091010;28;20083;-72
2022/05/12 11:13:59;;;;;;;6.25;1.38;;;;;;;;;;5090349;28;20039;-71
2022/05/12 11:16:29;;;;;;;6.13;1.35;;;;;;;;;;5091949;28;20031;-71
2022/05/12 11:19:07;;;;;;;6.43;1.53;;;;;;;;;;5087336;28;20137;-71
2022/05/12 11:21:51;;;;;;;9.90;1.73;;;;;;;;;;5087218;28;20381;-71
2022/05/12 11:24:33;;;;;;;6.18;1.60;;;;;;;;;;5081775;28;20028;-71
2022/05/12 11:27:18;;;;;;;6.53;1.67;;;;;;;;;;5090539;28;20032;-72
2022/05/12 11:29:44;;;;;;;6.47;1.63;;;;;;;;;;5089300;28;20028;-71
2022/05/12 11:32:17;;;;;;;6.55;1.50;;;;;;;;;;5088206;28;20124;-70
2022/05/12 11:34:46;;;;;;;7.32;1.30;;;;;;;;;;5086809;28;20024;-70
2022/05/12 11:37:27;;;;;;;7.05;1.58;;;;;;;;;;5088610;28;20504;-72
2022/05/12 11:39:54;;;;;;;4.97;1.70;;;;;;;;;;5091909;28;20035;-72
2022/05/12 11:42:20;;;;;;;5.85;1.38;;;;;;;;;;5086740;28;20629;-69
2022/05/12 11:44:46;;;;;;;5.80;1.23;;;;;;;;;;5084611;28;20076;-72
2022/05/12 11:47:31;;;;;;;6.40;1.50;;;;;;;;;;5082590;28;20461;-72
2022/05/12 11:50:25;;;;;;;4.57;1.40;;;;;;;;;;5091074;28;20040;-71
2022/05/12 11:53:12;;;;;;;2.90;1.00;;;;;;;;;;5089434;28;20116;-71
2022/05/12 11:55:53;;;;;;;7.30;1.73;;;;;;;;;;5109606;28;20024;-72
2022/05/12 11:58:29;;;;;;;7.53;1.40;;;;;;;;;;5089443;28;20225;-71
2022/05/12 12:00:56;;;;;;;7.60;1.70;;;;;;;;;;5087184;28;20032;-71
2022/05/12 12:03:22;;;;;;;6.18;1.25;;;;;;;;;;5087217;28;20101;-72
2022/05/12 12:05:48;;;;;;;5.18;1.42;;;;;;;;;;5089707;28;20062;-71
2022/05/12 12:08:33;;;;;;;11.45;1.90;;;;;;;;;;5087661;28;20051;-72
2022/05/12 12:11:22;;;;;;;8.10;1.90;;;;;;;;;;5085182;28;20024;-71
2022/05/12 12:13:49;;;;;;;5.25;1.63;;;;;;;;;;5078656;28;20134;-71
2022/05/12 12:16:17;;;;;;;5.10;1.77;;;;;;;;;;5088695;28;20035;-72
2022/05/12 12:18:45;;;;;;;7.57;1.48;;;;;;;;;;5089051;28;20531;-70
2022/05/12 12:21:30;;;;;;;3.05;1.00;;;;;;;;;;5086607;28;20415;-71
2022/05/12 12:24:04;;;;;;;8.65;1.20;;;;;;;;;;5088434;28;20113;-70
2022/05/12 12:26:34;;;;;;;5.60;1.58;;;;;;;;;;5087147;28;20377;-71
2022/05/12 12:29:09;;;;;;;6.72;1.50;;;;;;;;;;5080985;28;20560;-71
2022/05/12 12:31:37;;;;;;;4.85;1.02;;;;;;;;;;5078066;28;20028;-71
2022/05/12 12:34:22;;;;;;;4.10;1.10;;;;;;;;;;5089617;28;20020;-71
2022/05/12 12:36:54;;;;;;;4.20;1.33;;;;;;;;;;5090253;28;20035;-71
2022/05/12 12:39:29;;;;;;;5.53;1.55;;;;;;;;;;5087276;28;20438;-70
2022/05/12 12:42:14;;;;;;;4.13;1.65;;;;;;;;;;5087448;28;20032;-71
2022/05/12 12:44:44;;;;;;;7.35;2.38;;;;;;;;;;5086154;28;20043;-70
2022/05/12 12:47:16;;;;;;;4.95;1.20;;;;;;;;;;5087795;28;20042;-71
2022/05/12 12:49:49;;;;;;;6.20;1.70;;;;;;;;;;5088606;28;20085;-72
2022/05/12 12:52:16;;;;;;;10.23;1.83;;;;;;;;;;5089073;28;20020;-70
2022/05/12 12:57:40;;;;;;;10.88;1.48;;;;;;;;;;5089490;28;20410;-70
2022/05/12 13:00:08;;;;;;;6.28;1.80;;;;;;;;;;5087235;28;21491;-70
2022/05/12 13:02:42;;;;;;;3.75;1.50;;;;;;;;;;5087422;28;20123;-71
2022/05/12 13:05:18;;;;;;;5.55;1.17;;;;;;;;;;5070395;28;20044;-72
2022/05/12 13:07:52;;;;;;;5.85;1.65;;;;;;;;;;5088314;28;20085;-72
2022/05/12 13:10:18;;;;;;;8.25;1.40;;;;;;;;;;5086551;28;20040;-71
2022/05/12 13:13:02;;;;;;;3.30;1.23;;;;;;;;;;5085947;28;20028;-71
2022/05/12 13:15:32;;;;;;;7.78;1.50;;;;;;;;;;5087004;28;20028;-71
2022/05/12 13:17:59;;;;;;;4.10;1.20;;;;;;;;;;5089127;28;20095;-71
2022/05/12 13:20:31;;;;;;;8.70;1.58;;;;;;;;;;5086019;28;20115;-71
2022/05/12 13:23:01;;;;;;;4.85;1.33;;;;;;;;;;5086707;28;20028;-72
2022/05/12 13:25:29;;;;;;;8.10;1.83;;;;;;;;;;5087389;28;20028;-72
2022/05/12 13:27:55;;;;;;;7.40;1.73;;;;;;;;;;5076931;28;20290;-72
2022/05/12 13:30:26;;;;;;;4.53;1.70;;;;;;;;;;5079148;28;20028;-72
2022/05/12 13:32:52;;;;;;;;;;;;;;;;;;5090503;28;20035;-71
2022/05/12 13:35:22;;;;;;;6.70;1.38;;;;;;;;;;5088470;28;20344;-71
2022/05/12 13:37:50;;;;;;;4.93;1.58;;;;;;;;;;5088927;28;20077;-71
2022/05/12 13:40:35;;;;;;;4.45;1.10;;;;;;;;;;5086472;28;20020;-72
2022/05/12 13:43:01;;;;;;;4.05;1.33;;;;;;;;;;5089529;28;20028;-72
2022/05/12 13:45:31;;;;;;;5.82;1.60;;;;;;;;;;5089610;28;20107;-71
2022/05/12 13:47:57;;;;;;;8.02;1.80;;;;;;;;;;5088513;28;20492;-71
2022/05/12 13:50:42;;;;;;;5.10;1.27;;;;;;;;;;5084767;28;20062;-68
2022/05/12 13:53:08;;;;;;;5.45;1.50;;;;;;;;;;5086817;28;20091;-71
2022/05/12 13:55:35;;;;;;;6.05;1.45;;;;;;;;;;5081941;28;20031;-70
2022/05/12 13:58:04;;;;;;;6.88;1.35;;;;;;;;;;5084190;28;20024;-73
2022/05/12 14:00:34;;;;;;;11.73;1.85;;;;;;;;;;5086995;28;20034;-68
2022/05/12 14:03:15;;;;;;;6.00;1.45;;;;;;;;;;5083744;28;20110;-71
2022/05/12 14:05:42;;;;;;;5.75;1.85;;;;;;;;;;5069898;28;20031;-73
2022/05/12 14:08:11;;;;;;;9.52;1.50;;;;;;;;;;5084200;28;20020;-71
2022/05/12 14:10:47;;;;;;;7.65;1.40;;;;;;;;;;5087476;28;20111;-71
2022/05/12 14:21:33;;;;;;;7.57;1.65;;;;;;;;;;5086584;28;20047;-69
2022/05/12 14:23:59;;;;;;;7.18;1.60;;;;;;;;;;5083984;28;20127;-69
2022/05/12 14:26:25;;;;;;;15.00;1.83;;;;;;;;;;5086417;28;20136;-70
2022/05/12 14:28:52;;;;;;;6.68;1.60;;;;;;;;;;5086979;28;20557;-72
2022/05/12 14:31:19;;;;;;;6.57;1.30;;;;;;;;;;5086965;28;20036;-73
2022/05/12 14:33:45;;;;;;;7.75;1.40;;;;;;;;;;5083171;28;20039;-72
2022/05/12 14:36:11;;;;;;;12.48;1.90;;;;;;;;;;5089279;28;20032;-72
2022/05/12 14:38:37;;;;;;;5.95;1.40;;;;;;;;;;5074268;28;20506;-70
2022/05/12 14:41:03;;;;;;;4.15;1.20;;;;;;;;;;5086168;28;20029;-70
2022/05/12 14:43:29;;;;;;;7.45;1.40;;;;;;;;;;5088780;28;20039;-72
2022/05/12 14:45:55;;;;;;;7.10;1.50;;;;;;;;;;5073013;28;20028;-72
2022/05/12 14:48:21;;;;;;;5.68;1.45;;;;;;;;;;5071209;28;20319;-72
2022/05/12 14:50:49;;;;;;;7.55;1.48;;;;;;;;;;5073131;28;20028;-71
2022/05/12 14:53:16;;;;;;;5.05;1.13;;;;;;;;;;5091478;28;20034;-72
2022/05/12 14:55:42;;;;;;;4.65;1.10;;;;;;;;;;5091421;28;20131;-72
2022/05/12 14:58:10;;;;;;;4.60;1.33;;;;;;;;;;5073341;28;20093;-72
2022/05/12 15:00:37;;;;;;;6.25;1.10;;;;;;;;;;5091265;28;20016;-71
2022/05/12 15:03:03;;;;;;;7.88;1.40;;;;;;;;;;5090116;28;20070;-71
2022/05/12 15:05:29;;;;;;;6.30;1.30;;;;;;;;;;5087543;28;20063;-71
2022/05/12 15:07:55;;;;;;;5.85;1.10;;;;;;;;;;5090372;28;20173;-69
2022/05/12 15:10:22;;;;;;;9.25;1.40;;;;;;;;;;5091548;28;20143;-70
2022/05/12 15:12:49;;;;;;;4.47;0.98;;;;;;;;;;5090517;28;20028;-70
2022/05/12 15:15:15;;;;;;;4.78;1.33;;;;;;;;;;5089996;28;20032;-73